sensor_id;sensor_type;location;lat;lon;timestamp;pressure;altitude;pressure_sealevel;temperature;humidity
75359;BME280;64046;51.978;5.934;2023-03-01T00:01:56;103072.41;;;6.91;42.53
75359;BME280;64046;51.978;5.934;2023-03-01T00:04:28;103062.97;;;7.05;42.48
75359;BME280;64046;51.978;5.934;2023-03-01T00:06:57;103062.84;;;6.91;42.59
75359;BME280;64046;51.978;5.934;2023-03-01T00:09:27;103058.50;;;6.90;42.45
75359;BME280;64046;51.978;5.934;2023-03-01T00:11:56;103056.75;;;6.88;42.75
75359;BME280;64046;51.978;5.934;2023-03-01T00:14:25;103058.47;;;6.87;42.63
75359;BME280;64046;51.978;5.934;2023-03-01T00:16:54;103055.84;;;6.83;42.80
75359;BME280;64046;51.978;5.934;2023-03-01T00:19:24;103057.59;;;6.84;42.61
75359;BME280;64046;51.978;5.934;2023-03-01T00:21:56;103048.13;;;6.95;42.89
75359;BME280;64046;51.978;5.934;2023-03-01T00:24:25;103042.78;;;6.80;42.99
75359;BME280;64046;51.978;5.934;2023-03-01T00:26:55;103043.69;;;6.85;42.89
75359;BME280;64046;51.978;5.934;2023-03-01T00:29:26;103036.75;;;6.82;42.93
75359;BME280;64046;51.978;5.934;2023-03-01T00:31:55;103036.66;;;6.74;42.99
75359;BME280;64046;51.978;5.934;2023-03-01T00:34:26;103037.56;;;6.75;43.18
75359;BME280;64046;51.978;5.934;2023-03-01T00:36:58;103036.78;;;6.88;43.41
75359;BME280;64046;51.978;5.934;2023-03-01T00:39:31;103045.38;;;6.77;43.66
75359;BME280;64046;51.978;5.934;2023-03-01T00:42:00;103042.69;;;6.67;43.63
75359;BME280;64046;51.978;5.934;2023-03-01T00:44:30;103038.31;;;6.65;43.84
75359;BME280;64046;51.978;5.934;2023-03-01T00:47:00;103040.91;;;6.62;43.92
75359;BME280;64046;51.978;5.934;2023-03-01T00:49:31;103038.25;;;6.55;44.03
75359;BME280;64046;51.978;5.934;2023-03-01T00:52:03;103037.44;;;6.63;43.94
75359;BME280;64046;51.978;5.934;2023-03-01T00:54:32;103023.41;;;6.44;44.16
75359;BME280;64046;51.978;5.934;2023-03-01T00:57:01;103028.59;;;6.40;44.46
75359;BME280;64046;51.978;5.934;2023-03-01T00:59:31;103025.94;;;6.39;44.58
75359;BME280;64046;51.978;5.934;2023-03-01T01:02:01;103021.59;;;6.35;44.69
75359;BME280;64046;51.978;5.934;2023-03-01T01:04:30;103012.88;;;6.33;44.48
75359;BME280;64046;51.978;5.934;2023-03-01T01:06:59;103011.19;;;6.33;44.74
75359;BME280;64046;51.978;5.934;2023-03-01T01:09:31;103011.25;;;6.46;44.66
75359;BME280;64046;51.978;5.934;2023-03-01T01:12:00;103014.47;;;6.17;44.75
75359;BME280;64046;51.978;5.934;2023-03-01T01:14:30;103019.63;;;6.11;44.75
75359;BME280;64046;51.978;5.934;2023-03-01T01:16:59;103016.13;;;6.07;44.75
75359;BME280;64046;51.978;5.934;2023-03-01T01:19:29;103012.66;;;6.08;44.83
75359;BME280;64046;51.978;5.934;2023-03-01T01:21:58;103008.09;;;5.92;44.87
75359;BME280;64046;51.978;5.934;2023-03-01T01:24:27;103001.16;;;5.89;44.96
75359;BME280;64046;51.978;5.934;2023-03-01T01:26:59;102996.91;;;5.97;45.15
75359;BME280;64046;51.978;5.934;2023-03-01T01:29:28;103002.81;;;5.82;45.14
75359;BME280;64046;51.978;5.934;2023-03-01T01:31:57;102997.63;;;5.84;45.22
75359;BME280;64046;51.978;5.934;2023-03-01T01:34:26;102988.94;;;5.82;45.22
75359;BME280;64046;51.978;5.934;2023-03-01T01:36:56;102991.44;;;5.72;45.29
75359;BME280;64046;51.978;5.934;2023-03-01T01:39:28;102993.13;;;5.67;45.22
75359;BME280;64046;51.978;5.934;2023-03-01T01:42:00;102995.78;;;5.74;45.54
75359;BME280;64046;51.978;5.934;2023-03-01T01:44:30;102991.22;;;5.54;45.44
75359;BME280;64046;51.978;5.934;2023-03-01T01:47:01;102993.84;;;5.55;45.58
75359;BME280;64046;51.978;5.934;2023-03-01T01:49:34;102992.03;;;5.48;45.82
75359;BME280;64046;51.978;5.934;2023-03-01T01:52:08;102992.84;;;5.44;45.82
75359;BME280;64046;51.978;5.934;2023-03-01T01:54:42;102989.28;;;5.36;45.92
75359;BME280;64046;51.978;5.934;2023-03-01T01:57:19;102993.59;;;5.35;46.00
75359;BME280;64046;51.978;5.934;2023-03-01T01:59:53;102990.06;;;5.27;46.26
75359;BME280;64046;51.978;5.934;2023-03-01T02:02:23;102995.09;;;5.16;46.30
75359;BME280;64046;51.978;5.934;2023-03-01T02:05:00;102990.13;;;5.35;46.07
75359;BME280;64046;51.978;5.934;2023-03-01T02:07:37;102997.00;;;5.31;46.12
75359;BME280;64046;51.978;5.934;2023-03-01T02:10:09;102991.78;;;5.30;46.30
75359;BME280;64046;51.978;5.934;2023-03-01T02:12:41;102986.72;;;5.39;46.34
75359;BME280;64046;51.978;5.934;2023-03-01T02:15:10;102988.28;;;5.26;46.26
75359;BME280;64046;51.978;5.934;2023-03-01T02:17:40;102988.34;;;5.31;46.13
75359;BME280;64046;51.978;5.934;2023-03-01T02:20:17;102983.25;;;5.40;46.12
75359;BME280;64046;51.978;5.934;2023-03-01T02:22:52;102986.53;;;5.25;46.41
75359;BME280;64046;51.978;5.934;2023-03-01T02:25:36;102976.28;;;5.36;46.19
75359;BME280;64046;51.978;5.934;2023-03-01T02:30:46;102968.34;;;5.27;46.48
75359;BME280;64046;51.978;5.934;2023-03-01T02:33:28;102976.06;;;5.17;46.48
75359;BME280;64046;51.978;5.934;2023-03-01T02:35:59;102971.72;;;5.18;46.54
75359;BME280;64046;51.978;5.934;2023-03-01T02:38:29;102970.75;;;5.11;46.73
75359;BME280;64046;51.978;5.934;2023-03-01T02:41:02;102973.47;;;5.19;46.68
75359;BME280;64046;51.978;5.934;2023-03-01T02:43:33;102973.34;;;5.10;46.84
75359;BME280;64046;51.978;5.934;2023-03-01T02:46:13;102971.75;;;5.19;46.80
75359;BME280;64046;51.978;5.934;2023-03-01T02:48:44;102966.44;;;5.12;46.77
75359;BME280;64046;51.978;5.934;2023-03-01T02:51:31;102961.41;;;5.26;46.54
75359;BME280;64046;51.978;5.934;2023-03-01T02:54:10;102962.19;;;5.20;46.81
75359;BME280;64046;51.978;5.934;2023-03-01T02:56:43;102960.34;;;5.11;46.78
75359;BME280;64046;51.978;5.934;2023-03-01T02:59:16;102968.19;;;5.13;46.91
75359;BME280;64046;51.978;5.934;2023-03-01T03:01:49;102963.06;;;5.19;46.88
75359;BME280;64046;51.978;5.934;2023-03-01T03:04:19;102957.75;;;5.11;47.05
75359;BME280;64046;51.978;5.934;2023-03-01T03:06:50;102952.72;;;5.22;47.07
75359;BME280;64046;51.978;5.934;2023-03-01T03:09:20;102949.19;;;5.18;46.97
75359;BME280;64046;51.978;5.934;2023-03-01T03:11:49;102947.50;;;5.20;47.01
75359;BME280;64046;51.978;5.934;2023-03-01T03:14:18;102947.53;;;5.22;46.78
75359;BME280;64046;51.978;5.934;2023-03-01T03:16:51;102948.59;;;5.40;46.90
75359;BME280;64046;51.978;5.934;2023-03-01T03:19:20;102948.47;;;5.29;46.99
75359;BME280;64046;51.978;5.934;2023-03-01T03:21:49;102951.09;;;5.32;46.80
75359;BME280;64046;51.978;5.934;2023-03-01T03:24:19;102946.75;;;5.31;46.81
75359;BME280;64046;51.978;5.934;2023-03-01T03:26:48;102949.41;;;5.35;46.81
75359;BME280;64046;51.978;5.934;2023-03-01T03:29:17;102946.81;;;5.35;46.87
75359;BME280;64046;51.978;5.934;2023-03-01T03:31:46;102945.09;;;5.36;46.77
75359;BME280;64046;51.978;5.934;2023-03-01T03:34:18;102943.44;;;5.46;47.04
75359;BME280;64046;51.978;5.934;2023-03-01T03:36:47;102948.53;;;5.33;47.00
75359;BME280;64046;51.978;5.934;2023-03-01T03:39:16;102938.13;;;5.32;47.23
75359;BME280;64046;51.978;5.934;2023-03-01T03:41:46;102946.78;;;5.32;47.05
75359;BME280;64046;51.978;5.934;2023-03-01T03:44:15;102946.78;;;5.32;47.06
75359;BME280;64046;51.978;5.934;2023-03-01T03:46:44;102937.28;;;5.36;47.09
75359;BME280;64046;51.978;5.934;2023-03-01T03:49:13;102933.84;;;5.38;47.04
75359;BME280;64046;51.978;5.934;2023-03-01T03:51:45;102924.47;;;5.53;47.24
75359;BME280;64046;51.978;5.934;2023-03-01T03:54:15;102930.41;;;5.41;47.09
75359;BME280;64046;51.978;5.934;2023-03-01T03:56:44;102934.78;;;5.45;47.14
75359;BME280;64046;51.978;5.934;2023-03-01T03:59:13;102937.38;;;5.45;47.34
75359;BME280;64046;51.978;5.934;2023-03-01T04:01:42;102936.53;;;5.45;47.45
75359;BME280;64046;51.978;5.934;2023-03-01T04:04:11;102928.69;;;5.42;47.85
75359;BME280;64046;51.978;5.934;2023-03-01T04:06:46;102928.78;;;5.49;48.02
75359;BME280;64046;51.978;5.934;2023-03-01T04:09:15;102926.81;;;5.31;48.10
75359;BME280;64046;51.978;5.934;2023-03-01T04:11:44;102932.88;;;5.29;48.27
75359;BME280;64046;51.978;5.934;2023-03-01T04:14:14;102932.88;;;5.27;48.53
75359;BME280;64046;51.978;5.934;2023-03-01T04:16:43;102935.41;;;5.26;48.69
75359;BME280;64046;51.978;5.934;2023-03-01T04:19:12;102928.41;;;5.20;48.82
75359;BME280;64046;51.978;5.934;2023-03-01T04:21:41;102933.59;;;5.17;48.96
75359;BME280;64046;51.978;5.934;2023-03-01T04:24:13;102925.94;;;5.29;49.24
75359;BME280;64046;51.978;5.934;2023-03-01T04:26:42;102925.78;;;5.15;49.28
75359;BME280;64046;51.978;5.934;2023-03-01T04:29:11;102920.53;;;5.11;49.32
75359;BME280;64046;51.978;5.934;2023-03-01T04:31:41;102909.16;;;5.04;49.22
75359;BME280;64046;51.978;5.934;2023-03-01T04:34:10;102919.50;;;4.99;49.57
75359;BME280;64046;51.978;5.934;2023-03-01T04:36:40;102915.09;;;4.92;49.58
75359;BME280;64046;51.978;5.934;2023-03-01T04:39:09;102919.41;;;4.90;49.41
75359;BME280;64046;51.978;5.934;2023-03-01T04:41:41;102922.19;;;5.07;49.46
75359;BME280;64046;51.978;5.934;2023-03-01T04:44:12;102917.75;;;4.98;49.42
75359;BME280;64046;51.978;5.934;2023-03-01T04:46:41;102909.97;;;5.00;49.14
75359;BME280;64046;51.978;5.934;2023-03-01T04:49:10;102909.16;;;5.02;49.21
75359;BME280;64046;51.978;5.934;2023-03-01T04:51:39;102912.63;;;5.01;49.27
75359;BME280;64046;51.978;5.934;2023-03-01T04:54:09;102905.66;;;5.00;49.19
75359;BME280;64046;51.978;5.934;2023-03-01T04:56:41;102898.91;;;5.15;49.13
75359;BME280;64046;51.978;5.934;2023-03-01T04:59:10;102910.91;;;5.03;49.10
75359;BME280;64046;51.978;5.934;2023-03-01T05:01:39;102901.44;;;5.09;48.86
75359;BME280;64046;51.978;5.934;2023-03-01T05:04:10;102900.66;;;5.14;49.02
75359;BME280;64046;51.978;5.934;2023-03-01T05:06:39;102894.59;;;5.15;48.93
75359;BME280;64046;51.978;5.934;2023-03-01T05:09:09;102891.09;;;5.13;49.08
75359;BME280;64046;51.978;5.934;2023-03-01T05:11:40;102883.28;;;5.10;49.52
75359;BME280;64046;51.978;5.934;2023-03-01T05:14:11;102880.69;;;5.12;49.65
75359;BME280;64046;51.978;5.934;2023-03-01T05:16:40;102884.91;;;5.03;49.87
75359;BME280;64046;51.978;5.934;2023-03-01T05:19:09;102883.16;;;5.01;49.73
75359;BME280;64046;51.978;5.934;2023-03-01T05:21:41;102872.88;;;5.09;49.61
75359;BME280;64046;51.978;5.934;2023-03-01T05:24:23;102867.59;;;5.04;50.03
75359;BME280;64046;51.978;5.934;2023-03-01T05:26:55;102859.09;;;5.16;49.88
75359;BME280;64046;51.978;5.934;2023-03-01T05:29:25;102850.31;;;5.08;50.06
75359;BME280;64046;51.978;5.934;2023-03-01T05:31:57;102855.53;;;5.09;50.23
75359;BME280;64046;51.978;5.934;2023-03-01T05:34:28;102852.94;;;5.08;50.34
75359;BME280;64046;51.978;5.934;2023-03-01T05:36:59;102852.00;;;5.04;50.51
75359;BME280;64046;51.978;5.934;2023-03-01T05:39:29;102842.50;;;5.05;50.53
75359;BME280;64046;51.978;5.934;2023-03-01T05:42:01;102854.69;;;5.10;50.45
75359;BME280;64046;51.978;5.934;2023-03-01T05:44:31;102851.09;;;4.97;50.33
75359;BME280;64046;51.978;5.934;2023-03-01T05:47:00;102857.09;;;4.95;50.29
75359;BME280;64046;51.978;5.934;2023-03-01T05:49:29;102854.50;;;4.93;50.41
75359;BME280;64046;51.978;5.934;2023-03-01T05:52:00;102848.38;;;4.91;50.54
75359;BME280;64046;51.978;5.934;2023-03-01T05:54:30;102846.66;;;4.89;50.45
75359;BME280;64046;51.978;5.934;2023-03-01T05:57:01;102841.50;;;4.92;50.62
75359;BME280;64046;51.978;5.934;2023-03-01T05:59:31;102840.31;;;4.70;50.78
75359;BME280;64046;51.978;5.934;2023-03-01T06:02:01;102837.59;;;4.59;51.30
75359;BME280;64046;51.978;5.934;2023-03-01T06:04:30;102847.88;;;4.51;51.45
75359;BME280;64046;51.978;5.934;2023-03-01T06:06:59;102849.63;;;4.52;51.49
75359;BME280;64046;51.978;5.934;2023-03-01T06:09:29;102838.44;;;4.58;51.26
75359;BME280;64046;51.978;5.934;2023-03-01T06:12:00;102845.44;;;4.63;51.22
75359;BME280;64046;51.978;5.934;2023-03-01T06:14:31;102849.03;;;4.73;51.21
75359;BME280;64046;51.978;5.934;2023-03-01T06:17:00;102850.75;;;4.73;51.10
75359;BME280;64046;51.978;5.934;2023-03-01T06:19:29;102850.81;;;4.76;51.33
75359;BME280;64046;51.978;5.934;2023-03-01T06:21:58;102856.84;;;4.73;51.51
75359;BME280;64046;51.978;5.934;2023-03-01T06:24:28;102854.25;;;4.73;51.52
75359;BME280;64046;51.978;5.934;2023-03-01T06:26:57;102856.03;;;4.77;51.40
75359;BME280;64046;51.978;5.934;2023-03-01T06:29:29;102851.00;;;4.93;51.28
75359;BME280;64046;51.978;5.934;2023-03-01T06:31:58;102856.09;;;4.82;51.22
75359;BME280;64046;51.978;5.934;2023-03-01T06:34:27;102845.75;;;4.87;51.34
75359;BME280;64046;51.978;5.934;2023-03-01T06:36:56;102849.31;;;4.95;51.46
75359;BME280;64046;51.978;5.934;2023-03-01T06:39:27;102846.81;;;5.06;51.38
75359;BME280;64046;51.978;5.934;2023-03-01T06:41:57;102845.88;;;4.97;51.38
75359;BME280;64046;51.978;5.934;2023-03-01T06:44:29;102844.34;;;5.15;51.21
75359;BME280;64046;51.978;5.934;2023-03-01T06:46:58;102838.97;;;4.99;51.28
75359;BME280;64046;51.978;5.934;2023-03-01T06:49:27;102856.31;;;5.02;51.00
75359;BME280;64046;51.978;5.934;2023-03-01T06:51:57;102846.84;;;5.07;50.62
75359;BME280;64046;51.978;5.934;2023-03-01T06:54:26;102859.94;;;5.15;50.75
75359;BME280;64046;51.978;5.934;2023-03-01T06:56:55;102861.72;;;5.20;50.46
75359;BME280;64046;51.978;5.934;2023-03-01T06:59:24;102864.34;;;5.24;50.52
75359;BME280;64046;51.978;5.934;2023-03-01T07:01:56;102855.91;;;5.42;50.36
75359;BME280;64046;51.978;5.934;2023-03-01T07:04:26;102861.00;;;5.34;50.12
75359;BME280;64046;51.978;5.934;2023-03-01T07:06:57;102859.28;;;5.34;49.96
75359;BME280;64046;51.978;5.934;2023-03-01T07:09:26;102859.25;;;5.33;50.20
75359;BME280;64046;51.978;5.934;2023-03-01T07:11:56;102853.19;;;5.31;50.18
75359;BME280;64046;51.978;5.934;2023-03-01T07:14:25;102855.81;;;5.37;50.06
75359;BME280;64046;51.978;5.934;2023-03-01T07:16:57;102855.13;;;5.50;49.99
75359;BME280;64046;51.978;5.934;2023-03-01T07:19:26;102857.56;;;5.36;50.12
75359;BME280;64046;51.978;5.934;2023-03-01T07:21:55;102853.16;;;5.28;50.03
75359;BME280;64046;51.978;5.934;2023-03-01T07:24:25;102860.03;;;5.26;50.36
75359;BME280;64046;51.978;5.934;2023-03-01T07:26:54;102849.63;;;5.24;50.35
75359;BME280;64046;51.978;5.934;2023-03-01T07:29:23;102860.94;;;5.26;50.13
75359;BME280;64046;51.978;5.934;2023-03-01T07:31:57;102852.44;;;5.44;50.06
75359;BME280;64046;51.978;5.934;2023-03-01T07:34:26;102845.38;;;5.32;50.26
75359;BME280;64046;51.978;5.934;2023-03-01T07:36:55;102842.00;;;5.41;50.11
75359;BME280;64046;51.978;5.934;2023-03-01T07:39:25;102840.31;;;5.45;49.89
75359;BME280;64046;51.978;5.934;2023-03-01T07:41:54;102850.75;;;5.49;49.88
75359;BME280;64046;51.978;5.934;2023-03-01T07:44:23;102854.31;;;5.56;49.78
75359;BME280;64046;51.978;5.934;2023-03-01T07:46:52;102851.75;;;5.61;49.54
75359;BME280;64046;51.978;5.934;2023-03-01T07:49:27;102845.88;;;5.83;49.40
75359;BME280;64046;51.978;5.934;2023-03-01T07:51:56;102854.44;;;5.73;49.40
75359;BME280;64046;51.978;5.934;2023-03-01T07:54:25;102852.75;;;5.80;49.38
75359;BME280;64046;51.978;5.934;2023-03-01T07:56:56;102856.38;;;5.96;48.96
75359;BME280;64046;51.978;5.934;2023-03-01T07:59:26;102856.38;;;5.96;48.84
75359;BME280;64046;51.978;5.934;2023-03-01T08:01:56;102856.47;;;6.02;48.95
75359;BME280;64046;51.978;5.934;2023-03-01T08:04:28;102860.09;;;6.29;48.84
75359;BME280;64046;51.978;5.934;2023-03-01T08:06:57;102868.75;;;6.24;48.55
75359;BME280;64046;51.978;5.934;2023-03-01T08:09:26;102867.06;;;6.28;48.50
75359;BME280;64046;51.978;5.934;2023-03-01T08:11:57;102868.00;;;6.39;48.34
75359;BME280;64046;51.978;5.934;2023-03-01T08:14:27;102869.66;;;6.31;48.25
75359;BME280;64046;51.978;5.934;2023-03-01T08:16:57;102868.84;;;6.37;48.36
75359;BME280;64046;51.978;5.934;2023-03-01T08:19:29;102874.16;;;6.52;48.17
75359;BME280;64046;51.978;5.934;2023-03-01T08:22:01;102871.56;;;6.52;47.97
75359;BME280;64046;51.978;5.934;2023-03-01T08:24:30;102868.91;;;6.46;47.82
75359;BME280;64046;51.978;5.934;2023-03-01T08:26:59;102868.03;;;6.50;47.87
75359;BME280;64046;51.978;5.934;2023-03-01T08:29:30;102863.78;;;6.63;47.75
75359;BME280;64046;51.978;5.934;2023-03-01T08:31:59;102858.53;;;6.55;47.58
75359;BME280;64046;51.978;5.934;2023-03-01T08:34:31;102858.66;;;6.79;47.56
75359;BME280;64046;51.978;5.934;2023-03-01T08:37:01;102852.56;;;6.73;47.51
75359;BME280;64046;51.978;5.934;2023-03-01T08:39:31;102850.84;;;6.83;47.32
75359;BME280;64046;51.978;5.934;2023-03-01T08:42:00;102846.53;;;6.85;47.13
75359;BME280;64046;51.978;5.934;2023-03-01T08:44:29;102849.16;;;6.96;47.04
75359;BME280;64046;51.978;5.934;2023-03-01T08:46:59;102853.53;;;7.03;46.91
75359;BME280;64046;51.978;5.934;2023-03-01T08:49:33;102841.44;;;7.24;46.49
75359;BME280;64046;51.978;5.934;2023-03-01T08:52:03;102844.88;;;7.14;46.41
75359;BME280;64046;51.978;5.934;2023-03-01T08:54:32;102844.00;;;7.16;46.40
75359;BME280;64046;51.978;5.934;2023-03-01T08:57:01;102835.31;;;7.20;46.07
75359;BME280;64046;51.978;5.934;2023-03-01T08:59:31;102836.22;;;7.19;46.04
75359;BME280;64046;51.978;5.934;2023-03-01T09:02:03;102836.22;;;7.28;45.99
75359;BME280;64046;51.978;5.934;2023-03-01T09:04:35;102828.44;;;7.52;45.72
75359;BME280;64046;51.978;5.934;2023-03-01T09:07:04;102835.38;;;7.43;45.67
75359;BME280;64046;51.978;5.934;2023-03-01T09:09:33;102824.97;;;7.50;45.59
75359;BME280;64046;51.978;5.934;2023-03-01T09:12:03;102818.88;;;7.61;45.30
75359;BME280;64046;51.978;5.934;2023-03-01T09:14:32;102824.97;;;7.51;45.29
75359;BME280;64046;51.978;5.934;2023-03-01T09:17:03;102817.13;;;7.51;45.16
75359;BME280;64046;51.978;5.934;2023-03-01T09:19:35;102829.28;;;7.71;45.07
75359;BME280;64046;51.978;5.934;2023-03-01T09:22:04;102838.00;;;7.63;45.01
75359;BME280;64046;51.978;5.934;2023-03-01T09:24:33;102825.81;;;7.53;44.96
75359;BME280;64046;51.978;5.934;2023-03-01T09:27:03;102825.84;;;7.58;44.73
75359;BME280;64046;51.978;5.934;2023-03-01T09:29:35;102826.69;;;7.69;44.52
75359;BME280;64046;51.978;5.934;2023-03-01T09:32:04;102810.19;;;7.64;44.56
75359;BME280;64046;51.978;5.934;2023-03-01T09:34:36;102819.72;;;7.82;44.33
75359;BME280;64046;51.978;5.934;2023-03-01T09:37:27;102817.16;;;7.85;44.03
75359;BME280;64046;51.978;5.934;2023-03-01T09:39:56;102820.59;;;7.76;43.97
75359;BME280;64046;51.978;5.934;2023-03-01T09:42:27;102812.78;;;7.86;44.11
75359;BME280;64046;51.978;5.934;2023-03-01T09:45:00;102802.34;;;8.00;44.10
75359;BME280;64046;51.978;5.934;2023-03-01T09:47:33;102808.38;;;8.08;44.04
75359;BME280;64046;51.978;5.934;2023-03-01T09:50:09;102801.41;;;8.21;44.03
75359;BME280;64046;51.978;5.934;2023-03-01T09:52:42;102796.19;;;8.25;44.06
75359;BME280;64046;51.978;5.934;2023-03-01T09:55:13;102793.56;;;8.31;43.73
75359;BME280;64046;51.978;5.934;2023-03-01T09:57:47;102786.56;;;8.40;43.38
75359;BME280;64046;51.978;5.934;2023-03-01T10:00:31;102780.44;;;8.53;43.24
75359;BME280;64046;51.978;5.934;2023-03-01T10:03:13;102780.44;;;8.53;43.30
75359;BME280;64046;51.978;5.934;2023-03-01T10:05:56;102782.16;;;8.62;43.04
75359;BME280;64046;51.978;5.934;2023-03-01T10:08:38;102781.28;;;8.63;42.76
75359;BME280;64046;51.978;5.934;2023-03-01T10:11:20;102784.75;;;8.62;42.51
75359;BME280;64046;51.978;5.934;2023-03-01T10:13:54;102778.69;;;8.55;42.58
75359;BME280;64046;51.978;5.934;2023-03-01T10:16:37;102779.53;;;8.63;42.57
75359;BME280;64046;51.978;5.934;2023-03-01T10:19:14;102772.56;;;8.62;42.41
75359;BME280;64046;51.978;5.934;2023-03-01T10:21:47;102778.59;;;8.72;42.33
75359;BME280;64046;51.978;5.934;2023-03-01T10:24:19;102781.22;;;8.71;42.20
75359;BME280;64046;51.978;5.934;2023-03-01T10:26:54;102759.41;;;8.84;42.00
75359;BME280;64046;51.978;5.934;2023-03-01T10:29:29;102769.84;;;8.86;41.81
75359;BME280;64046;51.978;5.934;2023-03-01T10:32:00;102759.47;;;8.72;41.98
75359;BME280;64046;51.978;5.934;2023-03-01T10:34:34;102752.44;;;8.81;41.98
75359;BME280;64046;51.978;5.934;2023-03-01T10:37:13;102757.63;;;8.86;41.73
75359;BME280;64046;51.978;5.934;2023-03-01T10:39:58;102754.97;;;8.91;41.46
75359;BME280;64046;51.978;5.934;2023-03-01T10:42:33;102746.38;;;8.75;41.72
75359;BME280;64046;51.978;5.934;2023-03-01T10:45:23;102752.38;;;8.91;41.24
75359;BME280;64046;51.978;5.934;2023-03-01T10:48:04;102748.94;;;8.84;41.43
75359;BME280;64046;51.978;5.934;2023-03-01T10:50:33;102755.97;;;8.70;41.40
75359;BME280;64046;51.978;5.934;2023-03-01T10:53:19;102737.59;;;8.90;40.77
75359;BME280;64046;51.978;5.934;2023-03-01T10:55:57;102744.53;;;8.89;41.06
75359;BME280;64046;51.978;5.934;2023-03-01T10:58:28;102741.94;;;8.88;41.05
75359;BME280;64046;51.978;5.934;2023-03-01T11:00:59;102733.19;;;8.93;41.04
75359;BME280;64046;51.978;5.934;2023-03-01T11:03:30;102724.50;;;8.90;41.08
75359;BME280;64046;51.978;5.934;2023-03-01T11:06:04;102732.25;;;9.04;40.66
75359;BME280;64046;51.978;5.934;2023-03-01T11:08:39;102726.13;;;9.08;40.63
75359;BME280;64046;51.978;5.934;2023-03-01T11:11:25;102728.63;;;9.22;40.31
75359;BME280;64046;51.978;5.934;2023-03-01T11:13:57;102723.44;;;9.17;40.50
75359;BME280;64046;51.978;5.934;2023-03-01T11:16:31;102722.53;;;9.24;40.13
75359;BME280;64046;51.978;5.934;2023-03-01T11:19:21;102733.72;;;9.42;39.95
75359;BME280;64046;51.978;5.934;2023-03-01T11:21:56;102729.34;;;9.39;39.94
75359;BME280;64046;51.978;5.934;2023-03-01T11:24:34;102726.66;;;9.51;39.85
75359;BME280;64046;51.978;5.934;2023-03-01T11:27:15;102733.59;;;9.51;39.42
75359;BME280;64046;51.978;5.934;2023-03-01T11:29:47;102733.75;;;9.39;39.68
75359;BME280;64046;51.978;5.934;2023-03-01T11:32:24;102724.94;;;9.46;39.49
75359;BME280;64046;51.978;5.934;2023-03-01T11:34:57;102727.59;;;9.44;39.35
75359;BME280;64046;51.978;5.934;2023-03-01T11:37:34;102722.31;;;9.47;39.19
75359;BME280;64046;51.978;5.934;2023-03-01T11:40:12;102714.41;;;9.53;39.04
75359;BME280;64046;51.978;5.934;2023-03-01T11:42:52;102718.69;;;9.61;39.15
75359;BME280;64046;51.978;5.934;2023-03-01T11:45:24;102713.56;;;9.48;39.27
75359;BME280;64046;51.978;5.934;2023-03-01T11:48:05;102705.59;;;9.61;39.14
75359;BME280;64046;51.978;5.934;2023-03-01T11:50:41;102702.13;;;9.62;38.97
75359;BME280;64046;51.978;5.934;2023-03-01T11:56:23;102715.13;;;9.68;38.85
75359;BME280;64046;51.978;5.934;2023-03-01T11:59:10;102719.53;;;9.64;38.64
75359;BME280;64046;51.978;5.934;2023-03-01T12:05:07;102705.50;;;9.73;38.37
75359;BME280;64046;51.978;5.934;2023-03-01T12:07:46;102697.69;;;9.70;38.74
75359;BME280;64046;51.978;5.934;2023-03-01T12:10:23;102705.50;;;9.72;38.64
75359;BME280;64046;51.978;5.934;2023-03-01T12:13:21;102695.78;;;9.84;38.52
75359;BME280;64046;51.978;5.934;2023-03-01T12:16:04;102702.88;;;9.73;38.24
75359;BME280;64046;51.978;5.934;2023-03-01T12:18:58;102682.78;;;9.75;38.17
75359;BME280;64046;51.978;5.934;2023-03-01T12:21:42;102693.25;;;9.75;38.23
75359;BME280;64046;51.978;5.934;2023-03-01T12:27:24;102681.00;;;9.79;37.98
75359;BME280;64046;51.978;5.934;2023-03-01T12:30:15;102663.53;;;9.79;37.72
75359;BME280;64046;51.978;5.934;2023-03-01T12:32:51;102667.97;;;9.71;38.08
75359;BME280;64046;51.978;5.934;2023-03-01T12:35:39;102673.09;;;9.82;37.72
75359;BME280;64046;51.978;5.934;2023-03-01T12:38:22;102667.91;;;9.80;37.70
75359;BME280;64046;51.978;5.934;2023-03-01T12:41:10;102666.06;;;9.87;37.48
75359;BME280;64046;51.978;5.934;2023-03-01T12:43:49;102659.94;;;9.88;37.61
75359;BME280;64046;51.978;5.934;2023-03-01T12:46:31;102663.28;;;10.01;37.66
75359;BME280;64046;51.978;5.934;2023-03-01T12:49:08;102656.28;;;10.01;37.39
75359;BME280;64046;51.978;5.934;2023-03-01T12:51:40;102667.72;;;9.93;37.32
75359;BME280;64046;51.978;5.934;2023-03-01T12:54:16;102645.78;;;10.04;37.04
75359;BME280;64046;51.978;5.934;2023-03-01T12:56:48;102636.28;;;9.97;36.99
75359;BME280;64046;51.978;5.934;2023-03-01T12:59:23;102630.75;;;10.19;36.82
75359;BME280;64046;51.978;5.934;2023-03-01T13:02:03;102627.16;;;10.26;36.40
75359;BME280;64046;51.978;5.934;2023-03-01T13:04:53;102630.63;;;10.28;35.89
75359;BME280;64046;51.978;5.934;2023-03-01T13:07:30;102628.97;;;10.21;36.17
75359;BME280;64046;51.978;5.934;2023-03-01T13:10:14;102618.41;;;10.29;36.19
75359;BME280;64046;51.978;5.934;2023-03-01T13:12:50;102604.50;;;10.22;36.17
75359;BME280;64046;51.978;5.934;2023-03-01T13:15:28;102603.50;;;10.34;36.00
75359;BME280;64046;51.978;5.934;2023-03-01T13:18:02;102592.16;;;10.32;36.16
75359;BME280;64046;51.978;5.934;2023-03-01T13:20:34;102590.47;;;10.28;36.22
75359;BME280;64046;51.978;5.934;2023-03-01T13:23:24;102590.28;;;10.40;36.26
75359;BME280;64046;51.978;5.934;2023-03-01T13:26:10;102581.44;;;10.49;36.10
75359;BME280;64046;51.978;5.934;2023-03-01T13:28:53;102577.13;;;10.46;36.14
75359;BME280;64046;51.978;5.934;2023-03-01T13:34:47;102576.81;;;10.65;36.03
75359;BME280;64046;51.978;5.934;2023-03-01T13:37:27;102567.28;;;10.61;36.01
75359;BME280;64046;51.978;5.934;2023-03-01T13:40:01;102567.38;;;10.53;36.05
75359;BME280;64046;51.978;5.934;2023-03-01T13:42:38;102564.59;;;10.64;35.59
75359;BME280;64046;51.978;5.934;2023-03-01T13:45:25;102554.88;;;10.70;35.37